createdAt,value
2022-08-02T00:04:17.881Z,22.24
2022-08-02T00:10:22.798Z,21.95
2022-08-02T00:16:37.618Z,21.85
2022-08-02T00:22:41.462Z,21.76
2022-08-02T00:28:46.334Z,21.61
2022-08-02T00:34:50.153Z,21.52
2022-08-02T00:40:58.063Z,21.39
2022-08-02T00:47:03.350Z,21.49
2022-08-02T00:53:09.217Z,21.37
2022-08-02T00:59:12.684Z,21.39
2022-08-02T01:05:20.654Z,21.27
2022-08-02T01:11:24.189Z,21.16
2022-08-02T01:17:36.215Z,21.14
2022-08-02T01:23:58.434Z,21.10
2022-08-02T01:30:05.237Z,21.03
2022-08-02T01:36:13.094Z,20.96
2022-08-02T01:42:19.470Z,20.96
2022-08-02T01:48:27.754Z,20.96
2022-08-02T01:54:34.119Z,20.94
2022-08-02T02:00:41.540Z,20.91
2022-08-02T02:06:47.779Z,20.88
2022-08-02T02:12:52.601Z,20.71
2022-08-02T02:18:56.476Z,20.76
2022-08-02T02:25:01.575Z,20.58
2022-08-02T02:31:13.984Z,20.55
2022-08-02T02:37:22.076Z,20.40
2022-08-02T02:43:30.174Z,20.31
2022-08-02T02:49:36.116Z,20.25
2022-08-02T02:55:40.529Z,20.20
2022-08-02T03:02:07.320Z,20.10
2022-08-02T03:08:11.011Z,20.19
2022-08-02T03:14:15.537Z,20.28
2022-08-02T03:20:22.829Z,20.20
2022-08-02T03:26:26.494Z,20.24
2022-08-02T03:32:30.263Z,20.11
2022-08-02T03:38:36.944Z,20.14
2022-08-02T03:44:41.395Z,20.00
2022-08-02T03:50:48.151Z,20.00
2022-08-02T03:56:53.780Z,20.21
2022-08-02T04:02:57.447Z,20.17
2022-08-02T04:09:01.106Z,20.16
2022-08-02T04:15:08.281Z,20.09
2022-08-02T04:21:16.168Z,20.21
2022-08-02T04:27:50.516Z,20.15
2022-08-02T04:33:47.849Z,20.23
2022-08-02T04:39:51.566Z,20.28
2022-08-02T04:45:56.438Z,20.41
2022-08-02T04:52:01.698Z,20.16
2022-08-02T04:58:23.740Z,20.21
2022-08-02T05:04:28.913Z,20.29
2022-08-02T05:10:33.822Z,20.19
2022-08-02T05:16:37.402Z,20.09
2022-08-02T05:22:41.109Z,20.08
2022-08-02T05:28:46.064Z,20.18
2022-08-02T05:34:49.588Z,20.23
2022-08-02T05:40:54.713Z,20.25
2022-08-02T05:47:00.142Z,20.26
2022-08-02T05:53:06.902Z,20.34
2022-08-02T05:59:19.086Z,20.37
2022-08-02T06:05:26.938Z,20.46
2022-08-02T06:11:37.792Z,20.67
2022-08-02T06:17:45.658Z,20.76
2022-08-02T06:23:58.576Z,20.81
2022-08-02T06:30:03.661Z,20.78
2022-08-02T06:36:11.261Z,20.83
2022-08-02T06:42:27.160Z,21.04
2022-08-02T06:48:32.009Z,21.10
2022-08-02T06:54:36.242Z,21.24
2022-08-02T07:00:40.914Z,21.37
2022-08-02T07:06:44.900Z,21.34
2022-08-02T07:12:48.454Z,21.44
2022-08-02T07:18:53.371Z,21.52
2022-08-02T07:24:58.567Z,21.54
2022-08-02T07:31:02.366Z,21.60
2022-08-02T07:37:07.328Z,21.60
2022-08-02T07:43:13.359Z,21.68
2022-08-02T07:49:18.746Z,21.67
2022-08-02T07:55:23.821Z,21.70
2022-08-02T08:01:27.527Z,21.76
2022-08-02T08:07:31.246Z,21.80
2022-08-02T08:13:36.297Z,21.81
2022-08-02T08:19:52.140Z,21.83
2022-08-02T08:25:56.302Z,21.83
2022-08-02T08:32:01.638Z,21.89
2022-08-02T08:38:07.949Z,21.91
2022-08-02T08:44:11.647Z,21.95
2022-08-02T08:50:24.957Z,21.97
2022-08-02T08:56:31.606Z,21.99
2022-08-02T09:02:36.115Z,22.08
2022-08-02T09:08:41.113Z,22.12
2022-08-02T09:14:44.844Z,22.10
2022-08-02T09:20:57.558Z,22.14
2022-08-02T09:27:12.636Z,22.15
2022-08-02T09:33:17.998Z,22.18
2022-08-02T09:39:22.965Z,22.19
2022-08-02T09:45:34.630Z,22.22
2022-08-02T09:51:40.060Z,22.22
2022-08-02T09:57:44.001Z,22.27
2022-08-02T10:04:00.842Z,22.27
2022-08-02T10:10:05.653Z,22.35
2022-08-02T10:16:10.281Z,22.34
2022-08-02T10:22:19.888Z,22.35
2022-08-02T10:28:30.966Z,22.30
2022-08-02T10:34:37.851Z,22.33
2022-08-02T10:40:48.323Z,22.38
2022-08-02T10:46:52.189Z,22.44
2022-08-02T10:53:21.314Z,22.45
2022-08-02T10:59:27.990Z,22.51
2022-08-02T11:05:43.165Z,22.54
2022-08-02T11:12:02.879Z,22.59
2022-08-02T11:18:07.891Z,22.56
2022-08-02T11:24:29.522Z,22.59
2022-08-02T11:30:33.121Z,22.65
2022-08-02T11:36:47.305Z,22.72
2022-08-02T11:42:50.937Z,22.75
2022-08-02T11:48:54.612Z,22.76
2022-08-02T11:54:59.590Z,22.77
2022-08-02T12:01:04.345Z,22.83
2022-08-02T12:07:08.574Z,22.92
2022-08-02T12:13:13.633Z,23.00
2022-08-02T12:19:20.298Z,23.09
2022-08-02T12:25:34.833Z,23.16
2022-08-02T12:31:56.743Z,23.27
2022-08-02T12:38:10.934Z,23.41
2022-08-02T12:44:19.661Z,23.50
2022-08-02T12:50:27.495Z,23.60
2022-08-02T12:56:34.395Z,23.72
2022-08-02T13:02:37.902Z,23.84
2022-08-02T13:08:42.965Z,24.06
2022-08-02T13:14:46.501Z,24.17
2022-08-02T13:20:50.185Z,24.27
2022-08-02T13:26:55.103Z,24.51
2022-08-02T13:33:01.173Z,24.43
2022-08-02T13:39:06.767Z,24.56
2022-08-02T13:45:14.113Z,24.83
2022-08-02T13:51:18.129Z,24.76
2022-08-02T13:57:21.714Z,24.92
2022-08-02T14:03:26.725Z,24.99
2022-08-02T14:09:50.252Z,25.32
2022-08-02T14:15:53.862Z,25.18
2022-08-02T14:22:11.275Z,25.34
2022-08-02T14:28:15.871Z,25.34
2022-08-02T14:34:19.180Z,25.69
2022-08-02T14:40:30.803Z,25.96
2022-08-02T14:46:37.167Z,25.71
2022-08-02T14:52:40.722Z,25.67
2022-08-02T14:58:45.687Z,25.43
2022-08-02T15:04:49.257Z,25.30
2022-08-02T15:10:52.660Z,25.21
2022-08-02T15:16:59.002Z,25.09
2022-08-02T15:23:03.539Z,25.00
2022-08-02T15:29:07.102Z,24.90
2022-08-02T15:35:12.015Z,24.81
2022-08-02T15:41:15.746Z,24.72
2022-08-02T15:47:19.285Z,24.63
2022-08-02T15:53:24.211Z,24.63
2022-08-02T15:59:28.065Z,24.51
2022-08-02T16:05:31.606Z,24.51
2022-08-02T16:11:36.729Z,24.55
2022-08-02T16:17:49.355Z,24.47
2022-08-02T16:24:01.058Z,24.44
2022-08-02T16:30:09.666Z,24.37
2022-08-02T16:36:14.098Z,24.35
2022-08-02T16:42:25.448Z,24.26
2022-08-02T16:48:30.932Z,24.14
2022-08-02T16:54:34.899Z,24.24
2022-08-02T17:00:46.622Z,24.22
2022-08-02T17:06:52.884Z,24.19
2022-08-02T17:12:57.026Z,24.10
2022-08-02T17:19:01.073Z,24.07
2022-08-02T17:25:07.051Z,24.05
2022-08-02T17:31:14.829Z,23.95
2022-08-02T17:37:18.545Z,23.90
2022-08-02T17:43:25.936Z,23.80
2022-08-02T17:49:33.548Z,23.79
2022-08-02T17:55:42.296Z,23.63
2022-08-02T18:01:53.269Z,23.63
2022-08-02T18:08:01.079Z,23.51
2022-08-02T18:14:04.881Z,23.42
2022-08-02T18:20:12.556Z,23.39
2022-08-02T18:26:17.721Z,23.37
2022-08-02T18:33:55.240Z,23.12
2022-08-02T18:38:49.956Z,23.10
2022-08-02T18:44:55.896Z,23.11
2022-08-02T18:51:00.611Z,23.05
2022-08-02T18:58:04.373Z,22.93
2022-08-02T19:03:29.689Z,22.88
2022-08-02T19:09:40.766Z,22.59
2022-08-02T19:15:46.233Z,22.79
2022-08-02T19:22:18.198Z,22.68
2022-08-02T19:28:15.073Z,22.69
2022-08-02T19:34:20.067Z,22.46
2022-08-02T19:40:29.703Z,22.50
2022-08-02T19:46:35.999Z,22.54
2022-08-02T19:52:42.180Z,22.51
2022-08-02T19:58:48.274Z,22.48
2022-08-02T20:05:00.859Z,22.36
2022-08-02T20:11:14.951Z,22.30
2022-08-02T20:17:20.670Z,22.40
2022-08-02T20:23:34.027Z,22.18
2022-08-02T20:29:45.128Z,22.28
2022-08-02T20:35:54.736Z,22.23
2022-08-02T20:42:02.214Z,22.20
2022-08-02T20:48:11.157Z,22.17
2022-08-02T20:54:16.420Z,21.88
2022-08-02T21:00:25.011Z,21.85
2022-08-02T21:06:30.999Z,21.73
2022-08-02T21:12:36.301Z,21.68
2022-08-02T21:18:45.150Z,21.59
2022-08-02T21:24:50.160Z,21.52
2022-08-02T21:30:55.218Z,21.52
2022-08-02T21:36:58.740Z,-145.26
2022-08-02T21:43:03.786Z,-145.26
2022-08-02T21:49:13.093Z,-145.26
2022-08-02T21:55:16.621Z,-145.26
2022-08-02T22:01:31.629Z,-145.26
2022-08-02T22:07:38.171Z,-145.26
2022-08-02T22:13:47.664Z,21.48
2022-08-02T22:19:53.994Z,21.38
2022-08-02T22:25:58.220Z,21.34
2022-08-02T22:32:02.759Z,21.34
2022-08-02T22:38:14.756Z,21.40
2022-08-02T22:44:21.886Z,21.51
2022-08-02T22:50:27.607Z,21.57
2022-08-02T22:56:32.586Z,21.72
2022-08-02T23:02:36.246Z,21.72
2022-08-02T23:08:41.857Z,21.75
2022-08-02T23:14:47.255Z,21.73
2022-08-02T23:20:50.750Z,21.74
2022-08-02T23:26:54.257Z,21.66
2022-08-02T23:32:59.181Z,21.68
2022-08-02T23:39:03.193Z,21.74
2022-08-02T23:45:07.442Z,21.74
2022-08-02T23:51:21.990Z,21.64
2022-08-02T23:57:25.899Z,21.70
